Time;durP1;ratioP1;P1;durP2;ratioP2;P2;SDS_P1;SDS_P2;PMS_P1;PMS_P2;Temp;Humidity;BMP_temperature;BMP_pressure;BME280_temperature;BME280_humidity;BME280_pressure;Samples;Min_cycle;Max_cycle;Signal;HPM_P1;HPM_P2
2022/07/27 00:00:58;;;;;;;4.68;1.70;;;;;;;;;;5019070;28;20045;-81
2022/07/27 00:03:24;;;;;;;3.13;1.80;;;;;;;;;;5036913;28;20029;-81
2022/07/27 00:05:49;;;;;;;2.75;1.70;;;;;;;;;;5035922;28;20483;-81
2022/07/27 00:08:15;;;;;;;6.07;1.80;;;;;;;;;;5035009;28;20033;-81
2022/07/27 00:10:41;;;;;;;2.83;1.58;;;;;;;;;;5036497;28;20041;-82
2022/07/27 00:13:06;;;;;;;4.30;1.73;;;;;;;;;;5018881;28;20041;-81
2022/07/27 00:15:33;;;;;;;2.83;1.80;;;;;;;;;;5035779;28;20033;-81
2022/07/27 00:17:59;;;;;;;2.40;1.67;;;;;;;;;;5036208;28;20095;-81
2022/07/27 00:20:27;;;;;;;2.75;1.55;;;;;;;;;;5018878;28;20052;-81
2022/07/27 00:22:54;;;;;;;2.75;1.80;;;;;;;;;;5036198;28;20037;-81
2022/07/27 00:25:19;;;;;;;4.47;1.60;;;;;;;;;;5034203;28;20025;-81
2022/07/27 00:27:45;;;;;;;3.78;1.70;;;;;;;;;;5018398;28;20096;-81
2022/07/27 00:30:10;;;;;;;5.25;1.70;;;;;;;;;;5036278;28;20033;-82
2022/07/27 00:32:36;;;;;;;3.17;1.80;;;;;;;;;;5018511;28;20037;-81
2022/07/27 00:35:01;;;;;;;2.53;1.60;;;;;;;;;;5035428;28;20041;-81
2022/07/27 00:37:27;;;;;;;2.55;1.65;;;;;;;;;;5018046;28;20033;-81
2022/07/27 00:39:53;;;;;;;4.88;1.77;;;;;;;;;;5018480;28;20022;-81
2022/07/27 00:42:25;;;;;;;2.25;1.88;;;;;;;;;;5034846;28;20044;-81
2022/07/27 00:44:51;;;;;;;3.67;1.60;;;;;;;;;;5035254;28;20030;-81
2022/07/27 00:47:16;;;;;;;3.58;1.60;;;;;;;;;;5035831;28;20032;-81
2022/07/27 00:49:42;;;;;;;2.65;1.80;;;;;;;;;;5035534;28;20547;-81
2022/07/27 00:52:08;;;;;;;2.70;1.75;;;;;;;;;;5035709;28;20097;-81
2022/07/27 00:54:33;;;;;;;5.38;1.70;;;;;;;;;;5034705;28;20375;-81
2022/07/27 00:56:59;;;;;;;2.97;1.67;;;;;;;;;;5035360;28;20037;-81
2022/07/27 00:59:25;;;;;;;2.75;1.80;;;;;;;;;;5035703;28;20087;-81
2022/07/27 01:01:50;;;;;;;5.38;1.50;;;;;;;;;;5035216;28;20091;-81
2022/07/27 01:04:16;;;;;;;2.20;1.80;;;;;;;;;;5035366;28;20411;-81
2022/07/27 01:06:41;;;;;;;2.90;1.80;;;;;;;;;;5035619;28;20036;-81
2022/07/27 01:11:51;;;;;;;2.25;1.60;;;;;;;;;;5035289;28;20068;-81
2022/07/27 01:14:17;;;;;;;2.75;1.80;;;;;;;;;;5034803;28;20057;-80
2022/07/27 01:16:43;;;;;;;5.53;2.20;;;;;;;;;;5022831;28;20453;-81
2022/07/27 01:19:09;;;;;;;3.03;1.67;;;;;;;;;;5028997;28;20025;-80
2022/07/27 01:21:36;;;;;;;1.95;1.60;;;;;;;;;;5046602;28;20037;-81
2022/07/27 01:24:03;;;;;;;3.10;2.00;;;;;;;;;;5046407;28;20034;-80
2022/07/27 01:26:28;;;;;;;3.58;1.58;;;;;;;;;;5045408;28;20097;-81
2022/07/27 01:28:59;;;;;;;3.47;1.60;;;;;;;;;;5017451;28;20056;-81
2022/07/27 01:31:24;;;;;;;3.88;1.70;;;;;;;;;;5035205;28;20033;-80
2022/07/27 01:33:50;;;;;;;3.42;1.98;;;;;;;;;;5034996;28;20489;-81
2022/07/27 01:36:15;;;;;;;2.47;1.80;;;;;;;;;;5034300;28;20124;-81
2022/07/27 01:38:41;;;;;;;3.00;1.65;;;;;;;;;;5034696;28;20033;-81
2022/07/27 01:41:07;;;;;;;5.47;1.80;;;;;;;;;;5035199;28;20037;-81
2022/07/27 01:43:32;;;;;;;6.03;1.90;;;;;;;;;;5035032;28;20048;-81
2022/07/27 01:45:58;;;;;;;4.18;1.85;;;;;;;;;;5034426;28;20045;-81
2022/07/27 01:48:24;;;;;;;3.28;1.85;;;;;;;;;;5016916;28;20055;-81
2022/07/27 01:50:50;;;;;;;6.55;1.92;;;;;;;;;;5017365;28;20025;-81
2022/07/27 01:53:16;;;;;;;2.20;1.52;;;;;;;;;;5016959;28;20437;-81
2022/07/27 01:55:42;;;;;;;2.40;1.70;;;;;;;;;;5034089;28;20097;-80
2022/07/27 01:58:08;;;;;;;3.25;1.70;;;;;;;;;;5034515;28;20041;-81
2022/07/27 02:00:34;;;;;;;2.90;1.90;;;;;;;;;;5034867;28;20029;-81
2022/07/27 02:03:00;;;;;;;1.98;1.60;;;;;;;;;;5034742;28;20048;-80
2022/07/27 02:05:25;;;;;;;4.35;1.80;;;;;;;;;;5016509;28;20049;-81
2022/07/27 02:07:51;;;;;;;2.63;1.80;;;;;;;;;;5016958;28;20938;-81
2022/07/27 02:10:16;;;;;;;3.53;1.80;;;;;;;;;;5033272;28;20033;-81
2022/07/27 02:12:43;;;;;;;4.18;1.60;;;;;;;;;;5034603;28;20402;-81
2022/07/27 02:15:15;;;;;;;4.88;1.88;;;;;;;;;;5032721;28;20045;-81
2022/07/27 02:17:44;;;;;;;3.88;1.88;;;;;;;;;;5034509;28;20078;-81
2022/07/27 02:20:11;;;;;;;2.83;1.73;;;;;;;;;;5034371;28;20116;-81
2022/07/27 02:22:37;;;;;;;3.03;1.77;;;;;;;;;;5038259;28;20231;-82
2022/07/27 02:25:04;;;;;;;3.88;2.00;;;;;;;;;;5019682;28;20232;-82
2022/07/27 02:27:29;;;;;;;5.10;1.80;;;;;;;;;;5037670;28;20063;-82
2022/07/27 02:29:56;;;;;;;2.53;1.88;;;;;;;;;;5037722;28;20033;-82
2022/07/27 02:32:22;;;;;;;2.40;1.65;;;;;;;;;;5037708;28;20095;-80
2022/07/27 02:34:48;;;;;;;5.07;2.00;;;;;;;;;;5036543;28;20445;-80
2022/07/27 02:37:14;;;;;;;3.90;1.80;;;;;;;;;;5037775;28;20033;-82
2022/07/27 02:39:40;;;;;;;3.60;1.70;;;;;;;;;;5037453;28;20183;-82
2022/07/27 02:42:05;;;;;;;2.53;1.80;;;;;;;;;;5037647;28;20081;-82
2022/07/27 02:44:31;;;;;;;1.85;1.50;;;;;;;;;;5019735;28;20044;-82
2022/07/27 02:46:56;;;;;;;3.05;1.58;;;;;;;;;;5037515;28;20048;-82
2022/07/27 02:49:22;;;;;;;2.95;1.83;;;;;;;;;;5037793;28;20101;-82
2022/07/27 02:51:53;;;;;;;2.20;1.80;;;;;;;;;;5020259;28;20082;-82
2022/07/27 02:54:24;;;;;;;4.95;1.80;;;;;;;;;;5018980;28;20426;-80
2022/07/27 02:56:53;;;;;;;2.50;1.55;;;;;;;;;;5037245;28;20099;-80
2022/07/27 02:59:20;;;;;;;5.05;1.80;;;;;;;;;;5037725;28;20041;-80
2022/07/27 03:01:46;;;;;;;5.70;2.00;;;;;;;;;;5037818;28;20060;-82
2022/07/27 03:04:11;;;;;;;4.25;2.00;;;;;;;;;;5036473;28;20478;-81
2022/07/27 03:06:37;;;;;;;5.95;1.90;;;;;;;;;;5022644;28;20056;-82
2022/07/27 03:09:03;;;;;;;6.65;1.83;;;;;;;;;;5022299;28;20021;-82
2022/07/27 03:11:29;;;;;;;4.78;1.92;;;;;;;;;;5041592;28;20053;-82
2022/07/27 03:13:55;;;;;;;3.22;1.80;;;;;;;;;;5023449;28;20040;-80
2022/07/27 03:16:20;;;;;;;3.15;1.85;;;;;;;;;;5041043;28;20482;-82
2022/07/27 03:18:46;;;;;;;2.85;1.77;;;;;;;;;;5041119;28;20029;-82
2022/07/27 03:21:12;;;;;;;3.40;1.98;;;;;;;;;;5040074;28;20482;-82
2022/07/27 03:23:38;;;;;;;2.10;1.70;;;;;;;;;;5041490;28;20037;-82
2022/07/27 03:26:04;;;;;;;2.85;1.90;;;;;;;;;;5040732;28;20029;-81
2022/07/27 03:28:30;;;;;;;5.03;1.73;;;;;;;;;;5041219;28;20035;-82
2022/07/27 03:30:55;;;;;;;6.90;1.80;;;;;;;;;;5041242;28;20049;-82
2022/07/27 03:33:21;;;;;;;4.63;1.85;;;;;;;;;;5023197;28;20041;-82
2022/07/27 03:35:46;;;;;;;2.72;1.80;;;;;;;;;;5022594;28;20034;-82
2022/07/27 03:38:12;;;;;;;4.05;1.70;;;;;;;;;;5023090;28;20457;-82
2022/07/27 03:40:39;;;;;;;3.22;1.85;;;;;;;;;;5041561;28;20072;-82
2022/07/27 03:43:04;;;;;;;4.80;1.75;;;;;;;;;;5022775;28;20037;-81
2022/07/27 03:45:30;;;;;;;5.20;2.10;;;;;;;;;;5039877;28;20064;-80
2022/07/27 03:47:56;;;;;;;4.53;2.00;;;;;;;;;;5040560;28;20037;-82
2022/07/27 03:50:21;;;;;;;4.63;1.83;;;;;;;;;;5040593;28;20044;-81
2022/07/27 03:52:47;;;;;;;4.65;1.80;;;;;;;;;;5040795;28;20044;-82
2022/07/27 03:55:12;;;;;;;1.90;1.70;;;;;;;;;;5021949;28;20167;-82
2022/07/27 03:57:38;;;;;;;6.78;2.08;;;;;;;;;;5022622;28;20038;-81
2022/07/27 04:00:10;;;;;;;5.05;1.83;;;;;;;;;;5040475;28;20037;-81
2022/07/27 04:02:35;;;;;;;4.78;1.83;;;;;;;;;;5041034;28;20053;-82
2022/07/27 04:05:01;;;;;;;3.85;2.17;;;;;;;;;;5039809;28;20629;-81
2022/07/27 04:07:26;;;;;;;4.13;2.03;;;;;;;;;;5022964;28;20041;-81
2022/07/27 04:09:51;;;;;;;4.38;2.90;;;;;;;;;;5021249;28;20037;-82
2022/07/27 04:12:17;;;;;;;4.80;2.35;;;;;;;;;;5040665;28;20056;-82
2022/07/27 04:14:42;;;;;;;3.35;2.08;;;;;;;;;;5039638;28;20195;-81
2022/07/27 04:17:08;;;;;;;4.65;2.00;;;;;;;;;;5039165;28;20569;-82
2022/07/27 04:19:33;;;;;;;2.88;2.03;;;;;;;;;;5040299;28;20051;-82
2022/07/27 04:21:59;;;;;;;4.13;2.00;;;;;;;;;;5022182;28;20033;-82
2022/07/27 04:24:24;;;;;;;3.35;2.20;;;;;;;;;;5039725;28;20072;-82
2022/07/27 04:26:50;;;;;;;3.83;2.47;;;;;;;;;;5039771;28;20041;-82
2022/07/27 04:29:15;;;;;;;6.13;2.75;;;;;;;;;;5022326;28;20493;-82
2022/07/27 04:31:41;;;;;;;3.28;2.30;;;;;;;;;;5039819;28;20076;-82
2022/07/27 04:34:06;;;;;;;3.90;2.20;;;;;;;;;;5021450;28;20060;-82
2022/07/27 04:36:32;;;;;;;2.53;2.00;;;;;;;;;;5021705;28;20034;-81
2022/07/27 04:38:58;;;;;;;2.45;1.88;;;;;;;;;;5021993;28;20044;-82
2022/07/27 04:41:23;;;;;;;4.75;2.10;;;;;;;;;;5039309;28;20132;-82
2022/07/27 04:43:48;;;;;;;3.88;2.10;;;;;;;;;;5039315;28;20044;-84
2022/07/27 04:46:14;;;;;;;3.95;1.80;;;;;;;;;;5020636;28;20492;-81
2022/07/27 04:48:40;;;;;;;6.25;2.00;;;;;;;;;;5021098;28;20033;-84
2022/07/27 04:51:06;;;;;;;3.10;1.90;;;;;;;;;;5021093;28;20041;-83
2022/07/27 04:53:31;;;;;;;3.00;1.67;;;;;;;;;;5038962;28;20076;-82
2022/07/27 04:55:57;;;;;;;3.88;1.80;;;;;;;;;;5021291;28;20030;-82
2022/07/27 04:58:22;;;;;;;5.35;1.90;;;;;;;;;;5040752;28;20041;-81
2022/07/27 05:00:48;;;;;;;2.67;1.88;;;;;;;;;;5040422;28;20037;-80
2022/07/27 05:03:13;;;;;;;4.43;1.92;;;;;;;;;;5040087;28;20037;-84
2022/07/27 05:05:39;;;;;;;7.68;2.20;;;;;;;;;;5038995;28;20065;-83
2022/07/27 05:08:05;;;;;;;5.20;2.13;;;;;;;;;;5038940;28;20033;-83
2022/07/27 05:10:31;;;;;;;4.10;2.00;;;;;;;;;;5021723;28;20038;-83
2022/07/27 05:12:56;;;;;;;3.97;1.95;;;;;;;;;;5039621;28;20040;-83
2022/07/27 05:15:22;;;;;;;5.18;2.08;;;;;;;;;;5021235;28;20068;-83
2022/07/27 05:17:47;;;;;;;3.10;1.90;;;;;;;;;;5039555;28;20040;-84
2022/07/27 05:20:13;;;;;;;4.53;2.00;;;;;;;;;;5039817;28;20037;-83
2022/07/27 05:22:39;;;;;;;4.30;2.00;;;;;;;;;;5039454;28;20048;-83
2022/07/27 05:25:05;;;;;;;4.43;2.15;;;;;;;;;;5038478;28;20033;-83
2022/07/27 05:27:31;;;;;;;4.18;2.25;;;;;;;;;;5039458;28;20102;-83
2022/07/27 05:29:56;;;;;;;7.63;2.40;;;;;;;;;;5038588;28;20041;-82
2022/07/27 05:32:22;;;;;;;4.05;1.98;;;;;;;;;;5039358;28;20470;-82
2022/07/27 05:34:48;;;;;;;4.45;1.95;;;;;;;;;;5039444;28;20048;-82
2022/07/27 05:37:13;;;;;;;3.72;2.20;;;;;;;;;;5039015;28;20080;-82
2022/07/27 05:39:41;;;;;;;3.13;2.05;;;;;;;;;;5038980;28;20041;-83
2022/07/27 05:42:07;;;;;;;4.78;2.25;;;;;;;;;;5039546;28;20087;-82
2022/07/27 05:44:33;;;;;;;4.05;2.00;;;;;;;;;;5038849;28;20021;-82
2022/07/27 05:46:59;;;;;;;5.90;2.22;;;;;;;;;;5020877;28;20448;-82
2022/07/27 05:49:24;;;;;;;4.38;2.15;;;;;;;;;;5039530;28;20025;-83
2022/07/27 05:51:49;;;;;;;4.10;2.10;;;;;;;;;;5021599;28;20036;-82
2022/07/27 05:54:15;;;;;;;3.15;2.10;;;;;;;;;;5020710;28;20171;-82
2022/07/27 05:56:40;;;;;;;4.07;2.20;;;;;;;;;;5040013;28;20037;-83
2022/07/27 05:59:06;;;;;;;3.83;2.13;;;;;;;;;;5038355;28;20116;-81
2022/07/27 06:01:32;;;;;;;2.65;2.20;;;;;;;;;;5038936;28;20052;-81
2022/07/27 06:03:57;;;;;;;4.28;2.35;;;;;;;;;;5038575;28;20033;-80
2022/07/27 06:09:07;;;;;;;4.32;2.08;;;;;;;;;;5020457;28;20083;-82
2022/07/27 06:11:32;;;;;;;2.78;1.80;;;;;;;;;;5038490;28;20029;-83
2022/07/27 06:13:58;;;;;;;7.25;2.10;;;;;;;;;;5038561;28;20093;-80
2022/07/27 06:16:23;;;;;;;4.25;2.10;;;;;;;;;;5037070;28;20029;-80
2022/07/27 06:18:49;;;;;;;5.25;2.10;;;;;;;;;;5019982;28;20033;-83
2022/07/27 06:21:15;;;;;;;4.13;2.10;;;;;;;;;;5037444;28;20034;-83
2022/07/27 06:23:40;;;;;;;4.40;2.20;;;;;;;;;;5038025;28;20033;-83
2022/07/27 06:26:06;;;;;;;3.30;2.00;;;;;;;;;;5037617;28;20106;-81
2022/07/27 06:28:32;;;;;;;4.93;2.28;;;;;;;;;;5037225;28;20026;-82
2022/07/27 06:30:58;;;;;;;4.38;2.20;;;;;;;;;;5038499;28;20037;-82
2022/07/27 06:33:27;;;;;;;3.83;2.10;;;;;;;;;;5038277;28;20052;-80
2022/07/27 06:35:54;;;;;;;3.83;2.10;;;;;;;;;;5036426;28;20044;-83
2022/07/27 06:38:20;;;;;;;5.53;2.20;;;;;;;;;;5037595;28;20064;-82
2022/07/27 06:40:51;;;;;;;3.65;2.20;;;;;;;;;;5037426;28;20037;-83
2022/07/27 06:43:20;;;;;;;3.67;2.17;;;;;;;;;;5038113;28;20040;-82
2022/07/27 06:45:46;;;;;;;4.75;2.30;;;;;;;;;;5019432;28;20037;-86
2022/07/27 06:48:12;;;;;;;2.70;2.00;;;;;;;;;;5039059;28;20036;-87
2022/07/27 06:50:38;;;;;;;4.72;2.00;;;;;;;;;;5022456;28;20041;-85
2022/07/27 06:53:03;;;;;;;3.25;2.17;;;;;;;;;;5040543;28;20041;-85
2022/07/27 06:55:29;;;;;;;2.92;1.90;;;;;;;;;;5040619;28;20047;-86
2022/07/27 06:57:54;;;;;;;3.17;2.10;;;;;;;;;;5042644;28;20059;-88
2022/07/27 07:00:20;;;;;;;3.45;1.90;;;;;;;;;;5025068;28;20101;-86
2022/07/27 07:02:59;;;;;;;5.00;1.70;;;;;;;;;;5024157;28;20036;-86
2022/07/27 07:05:25;;;;;;;5.45;2.03;;;;;;;;;;5041263;28;20036;-86
2022/07/27 07:07:52;;;;;;;4.97;2.00;;;;;;;;;;5024380;28;20057;-87
2022/07/27 07:10:18;;;;;;;5.15;2.47;;;;;;;;;;5037714;28;20398;-85
2022/07/27 07:12:43;;;;;;;4.10;2.10;;;;;;;;;;5038185;28;20086;-88
2022/07/27 07:15:09;;;;;;;9.45;2.20;;;;;;;;;;5018783;28;20059;-83
2022/07/27 07:17:35;;;;;;;3.78;1.80;;;;;;;;;;5020548;28;20057;-85
2022/07/27 07:20:03;;;;;;;4.75;2.15;;;;;;;;;;5038309;28;20037;-83
2022/07/27 07:22:28;;;;;;;3.53;2.10;;;;;;;;;;5038166;28;20482;-83
2022/07/27 07:24:54;;;;;;;6.75;2.30;;;;;;;;;;5037871;28;20083;-84
2022/07/27 07:27:22;;;;;;;3.75;2.10;;;;;;;;;;5038739;28;20100;-84
2022/07/27 07:29:50;;;;;;;4.15;2.20;;;;;;;;;;5039094;28;20041;-86
2022/07/27 07:32:16;;;;;;;4.97;2.35;;;;;;;;;;5037920;28;20041;-86
2022/07/27 07:34:41;;;;;;;3.58;2.40;;;;;;;;;;5018681;28;20102;-84
2022/07/27 07:37:07;;;;;;;4.72;2.35;;;;;;;;;;5019886;28;20033;-84
2022/07/27 07:39:33;;;;;;;3.20;2.35;;;;;;;;;;5037968;28;20033;-84
2022/07/27 07:41:58;;;;;;;3.53;2.30;;;;;;;;;;5037962;28;20034;-85
2022/07/27 07:44:25;;;;;;;4.60;2.30;;;;;;;;;;5038214;28;20037;-83
2022/07/27 07:46:50;;;;;;;4.18;2.47;;;;;;;;;;5039239;28;20029;-84
2022/07/27 07:49:16;;;;;;;5.10;2.58;;;;;;;;;;5038916;28;20082;-84
2022/07/27 07:51:41;;;;;;;6.03;2.55;;;;;;;;;;5041024;28;20045;-84
2022/07/27 07:54:07;;;;;;;4.68;2.78;;;;;;;;;;5042046;28;20478;-85
2022/07/27 07:56:33;;;;;;;6.45;2.90;;;;;;;;;;5041606;28;20120;-87
2022/07/27 07:58:58;;;;;;;4.82;2.85;;;;;;;;;;5040089;28;20041;-84
2022/07/27 08:01:24;;;;;;;3.83;2.90;;;;;;;;;;5022775;28;20426;-85
2022/07/27 08:03:51;;;;;;;4.00;2.63;;;;;;;;;;5040247;28;20112;-87
2022/07/27 08:06:20;;;;;;;4.35;2.88;;;;;;;;;;5038092;28;20025;-88
2022/07/27 08:08:45;;;;;;;6.22;2.90;;;;;;;;;;5037852;28;20041;-90
2022/07/27 08:11:11;;;;;;;5.18;2.70;;;;;;;;;;5040560;28;20029;-88
2022/07/27 08:13:36;;;;;;;6.78;2.92;;;;;;;;;;5042406;28;20033;-80
2022/07/27 08:16:02;;;;;;;5.88;2.65;;;;;;;;;;5041820;28;20033;-86
2022/07/27 08:18:27;;;;;;;5.55;2.80;;;;;;;;;;5041688;28;20045;-87
2022/07/27 08:20:53;;;;;;;5.63;2.92;;;;;;;;;;5039361;28;20060;-84
2022/07/27 08:23:18;;;;;;;5.18;2.85;;;;;;;;;;5038430;28;20120;-82
2022/07/27 08:25:44;;;;;;;3.75;2.70;;;;;;;;;;5035821;28;20037;-82
2022/07/27 08:28:10;;;;;;;4.53;2.67;;;;;;;;;;5036728;28;20040;-82
2022/07/27 08:30:35;;;;;;;7.63;2.85;;;;;;;;;;5036826;28;20562;-82
2022/07/27 08:33:03;;;;;;;6.85;2.90;;;;;;;;;;5036772;28;20076;-82
2022/07/27 08:35:30;;;;;;;5.72;2.63;;;;;;;;;;5018553;28;20061;-82
2022/07/27 08:37:56;;;;;;;6.18;3.00;;;;;;;;;;5036833;28;20044;-82
2022/07/27 08:40:22;;;;;;;5.68;2.80;;;;;;;;;;5019123;28;20482;-83
2022/07/27 08:42:48;;;;;;;5.45;2.70;;;;;;;;;;5018351;28;20038;-82
2022/07/27 08:45:17;;;;;;;5.45;3.00;;;;;;;;;;5035905;28;20128;-83
2022/07/27 08:47:44;;;;;;;6.90;2.33;;;;;;;;;;5036522;28;20042;-82
2022/07/27 08:50:24;;;;;;;4.60;2.90;;;;;;;;;;5036830;28;20164;-82
2022/07/27 08:52:54;;;;;;;10.80;3.10;;;;;;;;;;5018992;28;20041;-82
2022/07/27 08:55:20;;;;;;;3.95;2.60;;;;;;;;;;5035652;28;20038;-82
2022/07/27 08:57:46;;;;;;;4.10;2.17;;;;;;;;;;5018728;28;20029;-83
2022/07/27 09:00:12;;;;;;;6.05;2.63;;;;;;;;;;5036630;28;20033;-83
2022/07/27 09:02:39;;;;;;;4.25;2.70;;;;;;;;;;5036248;28;20355;-83
2022/07/27 09:05:06;;;;;;;6.63;2.70;;;;;;;;;;5035457;28;20025;-83
2022/07/27 09:07:31;;;;;;;5.05;3.00;;;;;;;;;;5037160;28;20033;-82
2022/07/27 09:09:57;;;;;;;5.57;2.60;;;;;;;;;;5035571;28;20038;-83
2022/07/27 09:12:27;;;;;;;8.80;3.47;;;;;;;;;;5019444;28;20033;-83
2022/07/27 09:15:08;;;;;;;5.22;3.28;;;;;;;;;;5035904;28;20398;-83
2022/07/27 09:17:33;;;;;;;3.45;2.50;;;;;;;;;;5037104;28;20041;-83
2022/07/27 09:20:02;;;;;;;5.88;2.50;;;;;;;;;;5036666;28;20037;-84
2022/07/27 09:22:49;;;;;;;4.10;2.70;;;;;;;;;;5036775;28;20040;-84
2022/07/27 09:25:17;;;;;;;4.13;2.90;;;;;;;;;;5036020;28;20519;-84
2022/07/27 09:27:44;;;;;;;3.70;2.65;;;;;;;;;;5018712;28;20017;-83
2022/07/27 09:30:12;;;;;;;4.65;2.90;;;;;;;;;;5036607;28;20120;-83
2022/07/27 09:32:51;;;;;;;7.53;2.80;;;;;;;;;;5037198;28;20036;-83
2022/07/27 09:35:19;;;;;;;3.92;2.58;;;;;;;;;;5035679;28;20032;-83
2022/07/27 09:37:44;;;;;;;4.88;2.92;;;;;;;;;;5035568;28;20407;-82
2022/07/27 09:40:20;;;;;;;4.25;2.70;;;;;;;;;;5036648;28;20549;-82
2022/07/27 09:42:46;;;;;;;6.18;2.40;;;;;;;;;;5036614;28;20084;-82
2022/07/27 09:45:32;;;;;;;6.07;2.50;;;;;;;;;;5035697;28;20030;-83
2022/07/27 09:48:07;;;;;;;4.03;2.50;;;;;;;;;;5040471;28;20037;-82
2022/07/27 09:50:33;;;;;;;3.55;2.42;;;;;;;;;;5022816;28;20100;-82
2022/07/27 09:53:12;;;;;;;4.80;2.50;;;;;;;;;;5040338;28;20541;-82
2022/07/27 09:55:38;;;;;;;3.90;2.30;;;;;;;;;;5045197;28;20025;-82
2022/07/27 09:58:03;;;;;;;7.50;2.33;;;;;;;;;;5046227;28;20073;-82
2022/07/27 10:00:29;;;;;;;3.05;2.22;;;;;;;;;;5047061;28;20038;-82
2022/07/27 10:02:55;;;;;;;6.20;2.35;;;;;;;;;;5041299;28;20121;-82
2022/07/27 10:05:21;;;;;;;5.70;2.30;;;;;;;;;;5035430;28;20068;-81
2022/07/27 10:07:52;;;;;;;3.65;2.45;;;;;;;;;;5017885;28;20035;-82
2022/07/27 10:10:18;;;;;;;6.60;2.70;;;;;;;;;;5017250;28;20030;-82
2022/07/27 10:12:44;;;;;;;3.70;2.40;;;;;;;;;;5017929;28;20452;-82
2022/07/27 10:15:11;;;;;;;12.95;3.35;;;;;;;;;;5035022;28;20077;-82
2022/07/27 10:17:37;;;;;;;6.65;2.40;;;;;;;;;;5017495;28;20107;-82
2022/07/27 10:20:07;;;;;;;4.88;2.30;;;;;;;;;;5035404;28;20035;-82
2022/07/27 10:22:57;;;;;;;13.07;3.30;;;;;;;;;;5018369;28;20038;-82
2022/07/27 10:25:24;;;;;;;11.95;2.53;;;;;;;;;;5017508;28;20642;-82
2022/07/27 10:28:17;;;;;;;8.20;2.40;;;;;;;;;;5017992;28;20037;-82
2022/07/27 10:30:43;;;;;;;3.58;2.40;;;;;;;;;;5031695;28;20045;-82
2022/07/27 10:33:13;;;;;;;4.60;2.60;;;;;;;;;;5017700;28;20045;-82
2022/07/27 10:35:39;;;;;;;12.57;2.85;;;;;;;;;;5034719;28;20038;-83
2022/07/27 10:38:14;;;;;;;6.20;2.50;;;;;;;;;;5035393;28;20033;-83
2022/07/27 10:40:41;;;;;;;4.90;2.10;;;;;;;;;;5018103;28;20438;-83
2022/07/27 10:43:20;;;;;;;4.90;2.03;;;;;;;;;;5035004;28;20042;-84
2022/07/27 10:45:51;;;;;;;4.18;2.28;;;;;;;;;;5016084;28;20152;-83
2022/07/27 10:48:36;;;;;;;4.13;2.38;;;;;;;;;;5017673;28;20579;-83
2022/07/27 10:51:03;;;;;;;5.20;2.90;;;;;;;;;;5034375;28;20049;-82
2022/07/27 10:53:37;;;;;;;7.53;3.20;;;;;;;;;;5017763;28;20041;-83
2022/07/27 10:56:05;;;;;;;7.80;2.92;;;;;;;;;;5034227;28;20033;-83
2022/07/27 10:58:31;;;;;;;5.90;2.20;;;;;;;;;;5017255;28;20032;-83
2022/07/27 11:00:58;;;;;;;4.13;2.55;;;;;;;;;;5017603;28;20037;-83
2022/07/27 11:03:31;;;;;;;4.85;2.67;;;;;;;;;;5017318;28;20391;-83
2022/07/27 11:06:11;;;;;;;8.40;2.80;;;;;;;;;;5034485;28;20494;-84
2022/07/27 11:08:38;;;;;;;3.60;2.45;;;;;;;;;;5016271;28;20037;-86
2022/07/27 11:11:05;;;;;;;8.07;3.00;;;;;;;;;;5037692;28;20097;-85
2022/07/27 11:13:31;;;;;;;5.15;2.47;;;;;;;;;;5035125;28;20037;-85
2022/07/27 11:15:59;;;;;;;4.45;2.50;;;;;;;;;;4999723;28;20482;-84
2022/07/27 11:18:30;;;;;;;5.30;2.58;;;;;;;;;;5033234;28;20064;-85
2022/07/27 11:21:14;;;;;;;8.35;2.75;;;;;;;;;;5016344;28;20502;-86
2022/07/27 11:23:41;;;;;;;19.45;3.70;;;;;;;;;;5033684;28;20041;-86
2022/07/27 11:26:06;;;;;;;6.82;2.25;;;;;;;;;;5034371;28;20033;-86
2022/07/27 11:28:34;;;;;;;11.00;2.40;;;;;;;;;;5038156;28;20036;-85
2022/07/27 11:31:00;;;;;;;4.65;2.25;;;;;;;;;;5020501;28;20033;-85
2022/07/27 11:33:26;;;;;;;4.75;2.40;;;;;;;;;;5038014;28;20037;-85
2022/07/27 11:35:53;;;;;;;10.68;2.75;;;;;;;;;;5037183;28;20030;-86
2022/07/27 11:38:19;;;;;;;5.05;2.50;;;;;;;;;;5020260;28;20497;-86
2022/07/27 11:40:48;;;;;;;7.13;2.50;;;;;;;;;;5037402;28;20113;-86
2022/07/27 11:43:37;;;;;;;9.50;2.58;;;;;;;;;;5039314;28;20041;-86
2022/07/27 11:46:18;;;;;;;14.73;3.03;;;;;;;;;;5037434;28;20025;-86
2022/07/27 11:48:51;;;;;;;9.65;2.40;;;;;;;;;;5039608;28;20041;-86
2022/07/27 11:51:18;;;;;;;4.07;1.85;;;;;;;;;;5039680;28;20039;-85
2022/07/27 11:53:44;;;;;;;2.97;1.83;;;;;;;;;;5020831;28;20025;-85
2022/07/27 11:56:10;;;;;;;22.98;2.83;;;;;;;;;;5019630;28;20030;-85
2022/07/27 11:58:57;;;;;;;23.45;3.33;;;;;;;;;;5019784;28;20025;-84
2022/07/27 12:01:32;;;;;;;3.30;1.35;;;;;;;;;;5038040;28;20041;-86
2022/07/27 12:04:17;;;;;;;10.35;1.95;;;;;;;;;;5037519;28;20044;-84
2022/07/27 12:06:46;;;;;;;2.60;1.40;;;;;;;;;;5038581;28;20122;-86
2022/07/27 12:09:14;;;;;;;9.60;2.30;;;;;;;;;;5019404;28;20029;-84
2022/07/27 12:11:52;;;;;;;5.57;1.88;;;;;;;;;;5037336;28;20033;-85
2022/07/27 12:14:25;;;;;;;8.88;2.30;;;;;;;;;;5018613;28;20044;-85
2022/07/27 12:16:50;;;;;;;12.05;2.70;;;;;;;;;;5002931;28;20481;-85
2022/07/27 12:19:22;;;;;;;28.17;4.60;;;;;;;;;;5037323;28;20163;-86
2022/07/27 12:21:53;;;;;;;52.13;5.73;;;;;;;;;;5039302;28;20029;-87
2022/07/27 12:24:19;;;;;;;7.15;1.88;;;;;;;;;;5039266;28;20025;-83
2022/07/27 12:27:04;;;;;;;9.57;2.70;;;;;;;;;;5022336;28;20041;-87
2022/07/27 12:29:29;;;;;;;9.98;1.80;;;;;;;;;;5022021;28;20037;-88
2022/07/27 12:32:01;;;;;;;8.65;1.80;;;;;;;;;;5038018;28;20043;-85
2022/07/27 12:34:36;;;;;;;5.90;1.45;;;;;;;;;;5021498;28;20457;-87
2022/07/27 12:37:11;;;;;;;4.22;1.50;;;;;;;;;;5022241;28;20037;-86
2022/07/27 12:39:36;;;;;;;5.00;1.58;;;;;;;;;;5039410;28;20106;-86
2022/07/27 12:42:17;;;;;;;2.95;1.48;;;;;;;;;;5022593;28;20108;-88
2022/07/27 12:44:45;;;;;;;;;;;;;;;;;;5006769;28;20130;-84
2022/07/27 12:50:09;;;;;;;4.78;1.30;;;;;;;;;;5039043;28;20045;-86
2022/07/27 12:52:37;;;;;;;4.63;1.40;;;;;;;;;;5039327;28;20040;-87
2022/07/27 12:55:04;;;;;;;2.50;1.35;;;;;;;;;;5022433;28;20041;-87
2022/07/27 12:57:30;;;;;;;2.83;1.13;;;;;;;;;;5023271;28;20033;-89
2022/07/27 12:59:55;;;;;;;3.50;1.30;;;;;;;;;;5041167;28;20040;-88
2022/07/27 13:02:21;;;;;;;3.50;1.17;;;;;;;;;;5037107;28;20482;-85
2022/07/27 13:04:47;;;;;;;4.00;1.60;;;;;;;;;;5018267;28;20045;-86
2022/07/27 13:07:13;;;;;;;4.20;1.27;;;;;;;;;;5036272;28;20025;-86
2022/07/27 13:09:39;;;;;;;4.40;1.30;;;;;;;;;;5034213;28;20124;-85
2022/07/27 13:12:05;;;;;;;1.48;1.10;;;;;;;;;;5035909;28;20064;-86
2022/07/27 13:14:31;;;;;;;6.63;1.10;;;;;;;;;;5035427;28;20076;-85
2022/07/27 13:16:56;;;;;;;1.10;1.00;;;;;;;;;;5036103;28;20102;-86
2022/07/27 13:19:22;;;;;;;3.58;1.30;;;;;;;;;;5036528;28;20083;-85
2022/07/27 13:21:48;;;;;;;3.33;1.13;;;;;;;;;;5035839;28;20070;-85
2022/07/27 13:24:14;;;;;;;5.13;1.30;;;;;;;;;;5017415;28;20025;-85
2022/07/27 13:26:40;;;;;;;6.25;1.30;;;;;;;;;;5034881;28;20108;-85
2022/07/27 13:29:05;;;;;;;3.13;1.30;;;;;;;;;;5017525;28;20075;-85
2022/07/27 13:31:31;;;;;;;4.97;1.50;;;;;;;;;;5017859;28;20060;-85
2022/07/27 13:33:57;;;;;;;3.05;1.40;;;;;;;;;;5035321;28;20133;-83
2022/07/27 13:36:22;;;;;;;5.30;1.50;;;;;;;;;;5017588;28;20044;-85
2022/07/27 13:38:48;;;;;;;3.35;1.20;;;;;;;;;;5034374;28;20552;-86
2022/07/27 13:41:14;;;;;;;1.98;1.15;;;;;;;;;;5035084;28;20037;-85
2022/07/27 13:43:39;;;;;;;2.40;1.20;;;;;;;;;;5016940;28;20048;-85
2022/07/27 13:46:07;;;;;;;2.90;1.42;;;;;;;;;;5034954;28;20081;-85
2022/07/27 13:48:33;;;;;;;2.65;1.20;;;;;;;;;;5035253;28;20045;-85
2022/07/27 13:50:59;;;;;;;5.43;1.40;;;;;;;;;;5035265;28;20033;-85
2022/07/27 13:53:25;;;;;;;6.82;1.40;;;;;;;;;;5035347;28;20048;-85
2022/07/27 13:55:50;;;;;;;2.97;1.55;;;;;;;;;;5016550;28;20051;-85
2022/07/27 13:58:16;;;;;;;7.70;1.85;;;;;;;;;;5034676;28;20064;-86
2022/07/27 14:00:41;;;;;;;6.65;1.70;;;;;;;;;;5017121;28;20029;-84
2022/07/27 14:03:08;;;;;;;3.10;1.70;;;;;;;;;;5035908;28;20037;-84
2022/07/27 14:05:35;;;;;;;6.13;1.50;;;;;;;;;;5034751;28;20025;-85
2022/07/27 14:08:02;;;;;;;4.25;1.42;;;;;;;;;;5018196;28;20037;-83
2022/07/27 14:10:31;;;;;;;2.53;1.63;;;;;;;;;;5034431;28;20044;-83
2022/07/27 14:13:17;;;;;;;3.15;1.50;;;;;;;;;;5034887;28;20033;-84
2022/07/27 14:15:48;;;;;;;7.25;1.75;;;;;;;;;;5034200;28;20038;-84
2022/07/27 14:18:14;;;;;;;5.45;1.73;;;;;;;;;;5018416;28;20034;-84
2022/07/27 14:20:40;;;;;;;5.95;1.50;;;;;;;;;;5035884;28;20375;-84
2022/07/27 14:23:06;;;;;;;6.10;1.70;;;;;;;;;;5035444;28;20506;-84
2022/07/27 14:25:32;;;;;;;7.40;1.67;;;;;;;;;;5016096;28;20383;-84
2022/07/27 14:27:59;;;;;;;2.45;1.70;;;;;;;;;;5037453;28;20505;-84
2022/07/27 14:30:25;;;;;;;5.43;1.80;;;;;;;;;;5036179;28;20029;-84
2022/07/27 14:32:51;;;;;;;5.00;1.58;;;;;;;;;;5036228;28;20033;-84
2022/07/27 14:35:18;;;;;;;6.82;1.90;;;;;;;;;;5017948;28;20033;-86
2022/07/27 14:37:44;;;;;;;4.95;1.70;;;;;;;;;;5036045;28;20018;-83
2022/07/27 14:40:10;;;;;;;3.40;1.85;;;;;;;;;;5036630;28;20044;-84
2022/07/27 14:42:36;;;;;;;7.90;2.22;;;;;;;;;;5018301;28;20100;-84
2022/07/27 14:45:01;;;;;;;5.85;1.55;;;;;;;;;;5036466;28;20134;-85
2022/07/27 14:47:27;;;;;;;7.10;1.70;;;;;;;;;;5036494;28;20034;-84
2022/07/27 14:49:53;;;;;;;2.95;1.58;;;;;;;;;;5036033;28;20112;-81
2022/07/27 14:52:18;;;;;;;3.42;1.80;;;;;;;;;;5035212;28;20042;-84